Time;durP1;ratioP1;P1;durP2;ratioP2;P2;SDS_P1;SDS_P2;PMS_P1;PMS_P2;Temp;Humidity;BMP_temperature;BMP_pressure;BME280_temperature;BME280_humidity;BME280_pressure;Samples;Min_cycle;Max_cycle;Signal;HPM_P1;HPM_P2
2021/11/25 00:02:11;;;;;;;70.20;40.53;;;128.40;2252.80;;;;;;4994551;28;20030;-73
2021/11/25 00:04:37;;;;;;;57.63;40.10;;;128.70;2252.80;;;;;;4994600;28;20053;-72
2021/11/25 00:07:03;;;;;;;60.05;40.60;;;153.70;2176.00;;;;;;4994265;28;20033;-73
2021/11/25 00:09:29;;;;;;;61.95;41.22;;;128.90;2201.60;;;;;;4994164;28;20023;-73
2021/11/25 00:11:55;;;;;;;65.40;42.17;;;128.60;2252.80;;;;;;4976498;28;20088;-73
2021/11/25 00:14:20;;;;;;;65.10;41.47;;;128.50;2252.80;;;;;;4993934;28;20026;-74
2021/11/25 00:16:46;;;;;;;67.05;43.30;;;128.40;2252.80;;;;;;4994336;28;20031;-72
2021/11/25 00:19:12;;;;;;;48.70;33.03;;;128.30;2252.80;;;;;;4994003;28;20057;-73
2021/11/25 00:21:38;;;;;;;51.13;35.67;;;128.10;2252.80;;;;;;4994124;28;20041;-73
2021/11/25 00:24:05;;;;;;;49.03;31.27;;;128.00;2252.80;;;;;;4994000;28;20385;-71
2021/11/25 00:26:32;;;;;;;53.00;35.88;;;103.30;2227.20;;;;;;4993330;28;20477;-71
2021/11/25 00:28:59;;;;;;;58.63;39.90;;;128.40;2252.80;;;;;;4993886;28;20022;-71
2021/11/25 00:31:25;;;;;;;71.03;51.05;;;128.70;2252.80;;;;;;4976571;28;20093;-72
2021/11/25 00:33:51;;;;;;;61.20;41.65;;;128.90;2201.60;;;;;;4993816;28;20022;-72
2021/11/25 00:36:17;;;;;;;65.60;41.70;;;128.70;2227.20;;;;;;4993794;28;20102;-70
2021/11/25 00:38:42;;;;;;;62.03;41.47;;;128.30;2252.80;;;;;;4993872;28;20030;-72
2021/11/25 00:41:08;;;;;;;58.17;37.00;;;128.40;2252.80;;;;;;4993890;28;20093;-71
2021/11/25 00:43:34;;;;;;;54.55;36.45;;;128.40;2252.80;;;;;;4994086;28;20509;-71
2021/11/25 00:46:00;;;;;;;52.38;32.78;;;128.50;2252.80;;;;;;4993107;28;20041;-71
2021/11/25 00:48:26;;;;;;;58.47;36.58;;;128.50;2252.80;;;;;;4994059;28;20413;-74
2021/11/25 00:50:52;;;;;;;55.35;36.10;;;128.90;2176.00;;;;;;4993878;28;20029;-72
2021/11/25 00:53:18;;;;;;;55.63;35.53;;;128.80;2176.00;;;;;;4993614;28;20030;-72
2021/11/25 00:55:44;;;;;;;56.30;37.40;;;128.30;2252.80;;;;;;4993807;28;20022;-73
2021/11/25 00:58:10;;;;;;;78.70;47.13;;;128.30;2252.80;;;;;;4976311;28;20126;-70
2021/11/25 01:00:36;;;;;;;72.80;45.67;;;128.40;2252.80;;;;;;4993398;28;20477;-72
2021/11/25 01:03:04;;;;;;;72.93;46.92;;;128.60;2252.80;;;;;;4993716;28;20125;-73
2021/11/25 01:05:29;;;;;;;84.40;57.90;;;128.80;2227.20;;;;;;4993607;28;20466;-72
2021/11/25 01:07:55;;;;;;;76.18;46.03;;;128.50;2252.80;;;;;;4993517;28;20039;-73
2021/11/25 01:10:22;;;;;;;59.42;38.25;;;128.40;2252.80;;;;;;4993520;28;20486;-73
2021/11/25 01:12:49;;;;;;;64.07;40.97;;;128.20;2252.80;;;;;;4993344;28;20405;-73
2021/11/25 01:15:18;;;;;;;57.08;36.33;;;128.40;2252.80;;;;;;4993253;28;20113;-73
2021/11/25 01:17:44;;;;;;;58.58;37.40;;;128.30;2252.80;;;;;;4993585;28;20084;-73
2021/11/25 01:20:14;;;;;;;51.47;33.17;;;128.30;2252.80;;;;;;4993468;28;20378;-73
2021/11/25 01:22:40;;;;;;;47.45;29.88;;;128.50;2252.80;;;;;;4993506;28;20064;-72
2021/11/25 01:25:07;;;;;;;54.72;34.78;;;128.10;2252.80;;;;;;4993390;28;20031;-72
2021/11/25 01:27:33;;;;;;;81.18;49.97;;;103.30;2227.20;;;;;;4993226;28;20026;-72
2021/11/25 01:29:59;;;;;;;58.72;37.10;;;128.00;2252.80;;;;;;4993260;28;20034;-73
2021/11/25 01:32:25;;;;;;;59.25;37.88;;;128.60;2252.80;;;;;;4993239;28;20470;-73
2021/11/25 01:34:51;;;;;;;53.70;33.95;;;128.50;2252.80;;;;;;4993469;28;20469;-73
2021/11/25 01:37:16;;;;;;;61.45;35.58;;;128.40;2252.80;;;;;;4993815;28;20472;-72
2021/11/25 01:39:42;;;;;;;61.55;37.13;;;128.30;2252.80;;;;;;4997451;28;20023;-72
2021/11/25 01:42:08;;;;;;;100.10;62.83;;;128.40;2252.80;;;;;;4997077;28;20030;-72
2021/11/25 01:44:33;;;;;;;55.83;37.15;;;128.10;2252.80;;;;;;4997484;28;20026;-73
2021/11/25 01:47:04;;;;;;;58.13;34.47;;;103.30;2227.20;;;;;;4996833;28;20058;-73
2021/11/25 01:49:30;;;;;;;50.28;31.17;;;128.10;2252.80;;;;;;4997028;28;20034;-73
2021/11/25 01:51:57;;;;;;;36.80;24.35;;;128.00;2252.80;;;;;;4997006;28;20034;-72
2021/11/25 01:54:24;;;;;;;35.60;23.67;;;103.30;2227.20;;;;;;4996983;28;20117;-72
2021/11/25 01:56:50;;;;;;;47.17;27.88;;;103.30;2227.20;;;;;;4996908;28;20031;-72
2021/11/25 01:59:16;;;;;;;54.15;33.42;;;103.20;2227.20;;;;;;4996736;28;20027;-74
2021/11/25 02:01:42;;;;;;;58.22;33.90;;;128.20;2252.80;;;;;;4996871;28;20022;-73
2021/11/25 02:04:09;;;;;;;69.45;37.03;;;128.50;2252.80;;;;;;4996650;28;20034;-72
2021/11/25 02:06:35;;;;;;;43.90;28.33;;;128.50;2252.80;;;;;;4997007;28;20109;-73
2021/11/25 02:09:04;;;;;;;78.05;44.25;;;128.30;2252.80;;;;;;4996742;28;20027;-74
2021/11/25 02:11:30;;;;;;;39.33;25.42;;;128.10;2252.80;;;;;;4996808;28;20050;-74
2021/11/25 02:13:56;;;;;;;43.22;27.30;;;128.00;2252.80;;;;;;4996513;28;20030;-72
2021/11/25 02:16:22;;;;;;;40.25;25.90;;;103.30;2227.20;;;;;;4996494;28;20109;-73
2021/11/25 02:18:48;;;;;;;220.00;107.72;;;103.10;2227.20;;;;;;4996462;28;20035;-72
2021/11/25 02:21:14;;;;;;;44.08;29.35;;;103.30;2227.20;;;;;;4996552;28;20037;-72
2021/11/25 02:23:39;;;;;;;33.38;21.45;;;103.20;2227.20;;;;;;4996460;28;20092;-73
2021/11/25 02:26:05;;;;;;;33.90;21.73;;;103.20;2227.20;;;;;;4996421;28;20478;-73
2021/11/25 02:28:34;;;;;;;37.15;24.50;;;103.10;2227.20;;;;;;4996232;28;20030;-73
2021/11/25 02:31:01;;;;;;;36.33;25.17;;;103.30;2227.20;;;;;;4996219;28;20030;-73
2021/11/25 02:33:27;;;;;;;39.63;25.90;;;128.00;2252.80;;;;;;4996438;28;20034;-72
2021/11/25 02:35:53;;;;;;;32.50;22.02;;;103.30;2227.20;;;;;;4996353;28;20057;-72
2021/11/25 02:38:19;;;;;;;36.80;22.23;;;103.30;2227.20;;;;;;4996256;28;20034;-73
2021/11/25 02:40:51;;;;;;;33.78;21.98;;;103.20;2227.20;;;;;;4996064;28;20029;-72
2021/11/25 02:43:20;;;;;;;32.10;21.15;;;103.20;2227.20;;;;;;4995985;28;20022;-73
2021/11/25 02:45:49;;;;;;;37.75;24.08;;;103.10;2227.20;;;;;;4995837;28;20034;-72
2021/11/25 02:48:16;;;;;;;34.33;23.13;;;103.00;2227.20;;;;;;4995668;28;20047;-73
2021/11/25 02:50:42;;;;;;;50.80;29.80;;;103.00;2227.20;;;;;;4996003;28;20091;-72
2021/11/25 02:53:09;;;;;;;33.15;22.65;;;103.30;2227.20;;;;;;4995748;28;20042;-72
2021/11/25 02:55:35;;;;;;;43.72;27.33;;;103.30;2227.20;;;;;;4994962;28;20037;-73
2021/11/25 02:58:01;;;;;;;35.75;23.52;;;128.30;2252.80;;;;;;4995707;28;20038;-73
2021/11/25 03:00:26;;;;;;;36.28;22.42;;;128.40;2252.80;;;;;;4995569;28;20027;-72
2021/11/25 03:02:57;;;;;;;36.17;20.77;;;128.10;2252.80;;;;;;4995767;28;20034;-73
2021/11/25 03:05:24;;;;;;;40.88;25.05;;;103.30;2227.20;;;;;;4995645;28;20028;-72
2021/11/25 03:07:50;;;;;;;37.67;23.45;;;128.20;2252.80;;;;;;4995838;28;20038;-73
2021/11/25 03:10:16;;;;;;;35.13;22.80;;;128.40;2252.80;;;;;;4995553;28;20520;-72
2021/11/25 03:12:42;;;;;;;38.30;24.42;;;128.60;2252.80;;;;;;4995740;28;20434;-72
2021/11/25 03:15:08;;;;;;;30.58;21.15;;;128.10;2252.80;;;;;;4995305;28;20026;-72
2021/11/25 03:17:37;;;;;;;30.77;19.77;;;103.30;2227.20;;;;;;4995362;28;20114;-73
2021/11/25 03:20:04;;;;;;;30.42;19.95;;;103.20;2227.20;;;;;;4995386;28;20050;-73
2021/11/25 03:22:29;;;;;;;30.80;20.00;;;103.10;2227.20;;;;;;4995260;28;20105;-73
2021/11/25 03:24:56;;;;;;;25.77;17.83;;;103.20;2227.20;;;;;;4995301;28;20102;-73
2021/11/25 03:27:22;;;;;;;28.25;18.35;;;103.10;2227.20;;;;;;4995234;28;20543;-73
2021/11/25 03:29:48;;;;;;;35.03;22.08;;;103.10;2227.20;;;;;;4995130;28;20034;-72
2021/11/25 03:32:14;;;;;;;41.00;26.85;;;128.00;2252.80;;;;;;4995183;28;20038;-73
2021/11/25 03:34:40;;;;;;;39.67;27.35;;;128.50;2252.80;;;;;;4995382;28;20377;-73
2021/11/25 03:37:06;;;;;;;37.88;25.40;;;128.80;2252.80;;;;;;4995373;28;20030;-73
2021/11/25 03:39:32;;;;;;;34.72;24.70;;;153.60;2201.60;;;;;;4995378;28;20022;-73
2021/11/25 03:41:57;;;;;;;31.63;20.88;;;128.60;2252.80;;;;;;4994993;28;20026;-73
2021/11/25 03:44:23;;;;;;;37.60;22.17;;;128.00;2252.80;;;;;;4994799;28;20381;-73
2021/11/25 03:46:49;;;;;;;32.65;21.02;;;128.00;2252.80;;;;;;4994631;28;20100;-72
2021/11/25 03:49:15;;;;;;;30.88;20.17;;;128.10;2252.80;;;;;;4994928;28;20109;-71
2021/11/25 03:51:41;;;;;;;33.28;22.48;;;128.30;2252.80;;;;;;4994347;28;20029;-72
2021/11/25 03:54:07;;;;;;;37.88;24.67;;;128.70;2227.20;;;;;;4994666;28;20026;-73
2021/11/25 03:56:33;;;;;;;39.72;25.52;;;128.90;2201.60;;;;;;4994695;28;20023;-72
2021/11/25 03:58:58;;;;;;;69.60;36.58;;;153.60;2176.00;;;;;;4994509;28;20496;-71
2021/11/25 04:01:24;;;;;;;45.00;27.17;;;153.70;2150.40;;;;;;4993593;28;20100;-72
2021/11/25 04:03:50;;;;;;;46.42;26.70;;;128.90;2150.40;;;;;;4994524;28;20033;-72
2021/11/25 04:06:16;;;;;;;44.15;27.30;;;128.80;2176.00;;;;;;4994521;28;20113;-72
2021/11/25 04:08:42;;;;;;;40.55;26.58;;;128.60;2227.20;;;;;;4994485;28;20026;-73
2021/11/25 04:11:07;;;;;;;37.47;24.10;;;128.40;2252.80;;;;;;4994600;28;20033;-73
2021/11/25 04:13:34;;;;;;;42.33;24.33;;;128.10;2252.80;;;;;;4994215;28;20084;-72
2021/11/25 04:16:00;;;;;;;39.15;24.65;;;103.20;2227.20;;;;;;4994069;28;20034;-73
2021/11/25 04:18:25;;;;;;;40.42;23.35;;;103.20;2227.20;;;;;;4994363;28;20562;-72
2021/11/25 04:20:51;;;;;;;35.05;22.27;;;128.00;2252.80;;;;;;4994268;28;20030;-73
2021/11/25 04:23:17;;;;;;;36.35;22.25;;;103.30;2227.20;;;;;;4994230;28;20030;-72
2021/11/25 04:25:43;;;;;;;35.50;22.38;;;128.00;2252.80;;;;;;4994148;28;20470;-73
2021/11/25 04:28:08;;;;;;;41.20;28.15;;;128.10;2252.80;;;;;;4994132;28;20432;-72
2021/11/25 04:35:51;;;;;;;44.80;28.05;;;103.00;2227.20;;;;;;4993313;28;20468;-73
2021/11/25 04:38:20;;;;;;;41.00;26.77;;;102.90;2227.20;;;;;;4993836;28;20070;-72
2021/11/25 04:40:54;;;;;;;45.13;26.83;;;103.20;2227.20;;;;;;4994100;28;20041;-73
2021/11/25 04:43:21;;;;;;;45.80;26.85;;;128.20;2252.80;;;;;;4993534;28;20030;-73
2021/11/25 04:45:49;;;;;;;55.40;31.08;;;128.40;2252.80;;;;;;4993746;28;20030;-73
2021/11/25 04:48:17;;;;;;;53.00;31.45;;;128.70;2201.60;;;;;;4994213;28;20421;-73
2021/11/25 04:50:44;;;;;;;61.38;34.45;;;128.80;2176.00;;;;;;4994137;28;20101;-73
2021/11/25 04:53:11;;;;;;;87.70;47.90;;;128.70;2176.00;;;;;;4993554;28;20031;-73
2021/11/25 04:55:37;;;;;;;64.57;37.00;;;128.50;2201.60;;;;;;4993946;28;20030;-73
2021/11/25 04:58:03;;;;;;;50.08;28.50;;;128.40;2201.60;;;;;;4993516;28;20493;-73
2021/11/25 05:00:30;;;;;;;47.58;29.20;;;103.30;2227.20;;;;;;4993446;28;20022;-73
2021/11/25 05:02:55;;;;;;;41.03;25.83;;;103.30;2227.20;;;;;;4993539;28;20121;-73
2021/11/25 05:05:22;;;;;;;47.30;30.05;;;103.30;2227.20;;;;;;4993639;28;20146;-73
2021/11/25 05:07:49;;;;;;;55.58;32.47;;;103.30;2227.20;;;;;;4976071;28;20113;-73
2021/11/25 05:10:14;;;;;;;51.13;33.90;;;128.30;2227.20;;;;;;4993564;28;20105;-73
2021/11/25 05:12:40;;;;;;;49.53;29.73;;;128.30;2227.20;;;;;;4993045;28;20117;-72
2021/11/25 05:15:08;;;;;;;40.88;26.13;;;128.00;2252.80;;;;;;4993556;28;20034;-73
2021/11/25 05:17:34;;;;;;;36.35;24.38;;;103.20;2227.20;;;;;;4993360;28;20114;-73
2021/11/25 05:20:00;;;;;;;40.67;26.33;;;103.00;2227.20;;;;;;4993748;28;20030;-73
2021/11/25 05:22:25;;;;;;;40.78;28.63;;;102.90;2227.20;;;;;;4993286;28;20515;-74
2021/11/25 05:24:51;;;;;;;46.30;29.08;;;102.90;2227.20;;;;;;4993303;28;20033;-72
2021/11/25 05:27:17;;;;;;;55.15;32.45;;;102.90;2227.20;;;;;;4993195;28;20030;-73
2021/11/25 05:29:42;;;;;;;84.18;46.00;;;103.30;2227.20;;;;;;4993316;28;20033;-74
2021/11/25 05:32:09;;;;;;;65.85;38.38;;;103.20;2227.20;;;;;;4993376;28;20118;-73
2021/11/25 05:34:35;;;;;;;71.55;43.50;;;128.20;2252.80;;;;;;4993481;28;20022;-74
2021/11/25 05:37:00;;;;;;;81.78;45.33;;;128.20;2252.80;;;;;;4993291;28;20026;-71
2021/11/25 05:39:26;;;;;;;82.15;44.67;;;128.60;2227.20;;;;;;4993181;28;20117;-73
2021/11/25 05:41:52;;;;;;;80.70;42.58;;;128.70;2201.60;;;;;;4993112;28;20117;-73
2021/11/25 05:44:18;;;;;;;72.90;40.78;;;128.90;2150.40;;;;;;4993066;28;20033;-72
2021/11/25 05:46:43;;;;;;;85.97;48.72;;;128.90;2150.40;;;;;;4992950;28;20497;-72
2021/11/25 05:49:09;;;;;;;82.55;49.90;;;128.90;2150.40;;;;;;4993613;28;20049;-73
2021/11/25 05:51:35;;;;;;;98.00;58.35;;;128.80;2176.00;;;;;;4993208;28;20036;-73
2021/11/25 05:54:01;;;;;;;90.20;52.38;;;128.90;2150.40;;;;;;4993356;28;20031;-72
2021/11/25 05:56:27;;;;;;;85.28;53.38;;;153.60;2150.40;;;;;;4992964;28;20046;-73
2021/11/25 05:58:55;;;;;;;86.60;50.78;;;128.90;2150.40;;;;;;4992850;28;20034;-73
2021/11/25 06:01:23;;;;;;;80.25;46.47;;;128.50;2201.60;;;;;;4993272;28;20034;-72
2021/11/25 06:03:51;;;;;;;68.22;42.03;;;128.80;2176.00;;;;;;4993092;28;20030;-72
2021/11/25 06:06:17;;;;;;;65.78;40.78;;;128.90;2150.40;;;;;;4993165;28;20026;-74
2021/11/25 06:08:43;;;;;;;65.13;38.45;;;128.90;2124.80;;;;;;4992997;28;20031;-73
2021/11/25 06:11:09;;;;;;;66.32;37.83;;;128.30;2201.60;;;;;;4992960;28;20063;-73
2021/11/25 06:13:34;;;;;;;59.60;37.55;;;103.30;2227.20;;;;;;4992840;28;20061;-70
2021/11/25 06:16:00;;;;;;;54.65;33.53;;;103.20;2227.20;;;;;;4993135;28;20113;-72
2021/11/25 06:18:26;;;;;;;55.00;34.20;;;103.10;2227.20;;;;;;4992827;28;20478;-73
2021/11/25 06:20:52;;;;;;;57.20;34.22;;;128.20;2252.80;;;;;;4992883;28;20022;-72
2021/11/25 06:23:18;;;;;;;61.92;40.00;;;128.60;2201.60;;;;;;4993122;28;20077;-72
2021/11/25 06:25:43;;;;;;;85.72;51.10;;;128.70;2150.40;;;;;;4996344;28;20027;-72
2021/11/25 06:28:10;;;;;;;80.15;50.30;;;128.30;2201.60;;;;;;4996439;28;20545;-72
2021/11/25 06:30:36;;;;;;;72.70;45.65;;;128.10;2252.80;;;;;;4996340;28;20027;-72
2021/11/25 06:33:02;;;;;;;63.55;40.00;;;103.30;2227.20;;;;;;4996360;28;20485;-72
2021/11/25 06:35:28;;;;;;;74.45;40.50;;;103.30;2227.20;;;;;;4996218;28;20030;-72
2021/11/25 06:37:54;;;;;;;67.07;38.80;;;103.30;2227.20;;;;;;4996310;28;20159;-74
2021/11/25 06:40:26;;;;;;;66.60;38.47;;;128.20;2252.80;;;;;;4996166;28;20033;-73
2021/11/25 06:42:57;;;;;;;59.33;35.90;;;128.10;2252.80;;;;;;4995850;28;20033;-73
2021/11/25 06:45:24;;;;;;;61.67;36.10;;;128.00;2252.80;;;;;;4995871;28;20025;-71
2021/11/25 06:47:50;;;;;;;62.95;37.13;;;128.00;2252.80;;;;;;4995762;28;20078;-73
2021/11/25 06:50:18;;;;;;;65.00;42.20;;;128.40;2252.80;;;;;;4996068;28;20103;-73
2021/11/25 06:52:44;;;;;;;63.15;39.38;;;128.60;2252.80;;;;;;4995781;28;20049;-72
2021/11/25 06:55:10;;;;;;;62.90;39.35;;;128.80;2252.80;;;;;;4995823;28;20034;-72
2021/11/25 06:57:37;;;;;;;60.70;37.53;;;128.70;2252.80;;;;;;4995532;28;20494;-72
2021/11/25 07:00:10;;;;;;;63.10;39.88;;;128.80;2252.80;;;;;;4995707;28;20029;-73
2021/11/25 07:02:36;;;;;;;61.92;40.85;;;;;;;;;;4995906;28;20034;-73
2021/11/25 07:05:04;;;;;;;58.55;37.15;;;153.90;2252.80;;;;;;4996019;28;20026;-73
2021/11/25 07:07:31;;;;;;;60.67;38.53;;;153.80;2252.80;;;;;;4995502;28;20041;-72
2021/11/25 07:09:57;;;;;;;104.80;74.03;;;;;;;;;;4995569;28;20026;-74
2021/11/25 07:12:22;;;;;;;49.60;33.95;;;179.50;2099.20;;;;;;4995445;28;20066;-72
2021/11/25 07:14:49;;;;;;;67.55;46.92;;;;;;;;;;4995640;28;20062;-73
2021/11/25 07:17:15;;;;;;;65.20;42.15;;;;;;;;;;4995867;28;20037;-73
2021/11/25 07:19:41;;;;;;;71.70;44.28;;;204.80;1971.20;;;;;;4995283;28;20022;-73
2021/11/25 07:22:07;;;;;;;66.68;46.42;;;;;;;;;;4995330;28;20117;-71
2021/11/25 07:24:33;;;;;;;64.18;42.05;;;;;;;;;;4995317;28;20023;-74
2021/11/25 07:26:59;;;;;;;71.88;47.33;;;;;;;;;;4995154;28;20426;-72
2021/11/25 07:29:25;;;;;;;69.13;45.95;;;;;;;;;;4995130;28;20022;-72
2021/11/25 07:31:52;;;;;;;58.58;41.17;;;;;;;;;;4995150;28;20030;-73
2021/11/25 07:34:17;;;;;;;64.20;43.70;;;230.70;1817.60;;;;;;4993845;28;20023;-71
2021/11/25 07:36:43;;;;;;;67.18;42.05;;;230.40;1843.20;;;;;;4995405;28;20356;-74
2021/11/25 07:39:09;;;;;;;69.43;43.85;;;230.40;1817.60;;;;;;4995497;28;20092;-74
2021/11/25 07:41:38;;;;;;;62.03;39.65;;;205.50;1945.60;;;;;;4994852;28;20363;-73
2021/11/25 07:44:05;;;;;;;61.15;39.17;;;205.70;1894.40;;;;;;4994710;28;20042;-72
2021/11/25 07:46:30;;;;;;;62.83;41.67;;;205.60;1920.00;;;;;;4994581;28;20049;-74
2021/11/25 07:48:58;;;;;;;71.20;43.22;;;205.30;2252.80;;;;;;4994794;28;20034;-72
2021/11/25 07:51:24;;;;;;;63.42;42.20;;;205.20;1971.20;;;;;;4994544;28;20037;-72
2021/11/25 07:53:50;;;;;;;72.35;46.75;;;;;;;;;;4994480;28;20038;-73
2021/11/25 07:56:16;;;;;;;67.65;43.88;;;205.50;1945.60;;;;;;4994590;28;20023;-72
2021/11/25 07:58:41;;;;;;;86.40;53.78;;;205.40;1971.20;;;;;;4994283;28;20084;-71
2021/11/25 08:01:07;;;;;;;93.70;56.85;;;205.40;1945.60;;;;;;4994318;28;20093;-70
2021/11/25 08:03:33;;;;;;;146.10;86.28;;;;;;;;;;4994321;28;20026;-71
2021/11/25 08:05:59;;;;;;;117.43;74.15;;;230.70;1894.40;;;;;;4994213;28;20026;-72
2021/11/25 08:08:25;;;;;;;122.25;79.35;;;;;;;;;;4994270;28;20069;-74
2021/11/25 08:10:52;;;;;;;84.20;57.53;;;;;;;;;;4993025;28;20481;-74
2021/11/25 08:13:17;;;;;;;88.63;55.47;;;231.20;1792.00;;;;;;4993975;28;20121;-72
2021/11/25 08:15:43;;;;;;;73.43;46.10;;;231.20;1817.60;;;;;;4994169;28;20072;-72
2021/11/25 08:18:09;;;;;;;93.40;62.17;;;;;;;;;;4994321;28;20035;-73
2021/11/25 08:20:35;;;;;;;95.15;70.50;;;282.00;1715.20;;;;;;4994010;28;20058;-72
2021/11/25 08:23:01;;;;;;;82.18;59.58;;;;;;;;;;4994417;28;20060;-74
2021/11/25 08:25:28;;;;;;;103.97;76.43;;;307.50;1612.80;;;;;;4994030;28;20038;-72
2021/11/25 08:27:59;;;;;;;77.55;58.00;;;307.60;1587.20;;;;;;4976904;28;20038;-72
2021/11/25 08:30:26;;;;;;;84.47;61.28;;;;;;;;;;4994056;28;20034;-74
2021/11/25 08:32:52;;;;;;;79.38;51.17;;;308.10;1536.00;;;;;;4992464;28;20065;-71
2021/11/25 08:35:21;;;;;;;94.82;70.10;;;;;;;;;;4993906;28;20108;-74
2021/11/25 08:37:47;;;;;;;93.68;62.38;;;;;;;;;;4994034;28;20037;-76
2021/11/25 08:40:14;;;;;;;96.82;71.78;;;;;;;;;;4993991;28;20160;-75
2021/11/25 08:42:41;;;;;;;104.00;78.45;;;;;;;;;;4993438;28;20105;-73
2021/11/25 08:45:08;;;;;;;73.93;48.80;;;358.50;1459.20;;;;;;4993523;28;20085;-71
2021/11/25 08:47:34;;;;;;;78.07;52.97;;;;;;;;;;4992538;28;20054;-74
2021/11/25 08:50:00;;;;;;;89.32;61.15;;;;;;;;;;4993531;28;20026;-75
2021/11/25 08:52:26;;;;;;;82.82;53.85;;;384.80;1331.20;;;;;;4993358;28;20093;-71
2021/11/25 08:54:52;;;;;;;80.60;53.47;;;;;;;;;;4993446;28;20023;-73
2021/11/25 08:57:18;;;;;;;71.88;51.20;;;;;;;;;;4993215;28;20058;-72
2021/11/25 08:59:44;;;;;;;76.20;51.75;;;;;;;;;;4993714;28;20053;-69
2021/11/25 09:02:10;;;;;;;72.63;50.03;;;;;;;;;;4993417;28;20028;-73
2021/11/25 09:04:37;;;;;;;80.20;59.03;;;410.50;1254.40;;;;;;4993497;28;20480;-71
2021/11/25 09:07:04;;;;;;;86.18;61.17;;;410.10;1254.40;;;;;;4993463;28;20121;-73
2021/11/25 09:09:30;;;;;;;71.43;51.95;;;;;;;;;;4993202;28;20520;-67
2021/11/25 09:11:56;;;;;;;74.97;52.40;;;384.50;1305.60;;;;;;4993290;28;20121;-73
2021/11/25 09:14:21;;;;;;;87.35;60.05;;;384.00;1356.80;;;;;;4993165;28;20034;-69
2021/11/25 09:16:48;;;;;;;86.45;57.20;;;;;;;;;;4993357;28;20037;-75
2021/11/25 09:19:14;;;;;;;73.18;49.80;;;359.10;1408.00;;;;;;4993280;28;20057;-73
2021/11/25 09:21:40;;;;;;;96.32;65.63;;;359.20;1408.00;;;;;;4993502;28;20027;-73
2021/11/25 09:24:06;;;;;;;85.93;59.25;;;;;;;;;;4993243;28;20516;-75
2021/11/25 09:26:34;;;;;;;86.18;60.75;;;384.00;1408.00;;;;;;4993049;28;20117;-73
2021/11/25 09:29:00;;;;;;;76.68;54.35;;;;;;;;;;4993050;28;20022;-75
2021/11/25 09:31:27;;;;;;;76.65;53.50;;;;;;;;;;4993012;28;20030;-74
2021/11/25 09:33:54;;;;;;;76.22;54.50;;;410.30;1280.00;;;;;;4993065;28;20073;-74
2021/11/25 09:36:20;;;;;;;84.78;58.10;;;;;;;;;;4993126;28;20025;-74
2021/11/25 09:38:46;;;;;;;84.65;65.28;;;435.60;1228.80;;;;;;4993308;28;20109;-72
2021/11/25 09:41:12;;;;;;;103.38;73.78;;;435.80;1203.20;;;;;;4992910;28;20113;-73
2021/11/25 09:43:38;;;;;;;78.90;57.67;;;;;;;;;;4992595;28;20037;-73
2021/11/25 09:46:05;;;;;;;81.97;57.17;;;435.30;1228.80;;;;;;4992690;28;20057;-72
2021/11/25 09:48:32;;;;;;;119.82;89.82;;;;;;;;;;4993277;28;20038;-74
2021/11/25 09:50:59;;;;;;;78.22;55.70;;;;;;;;;;4993095;28;20023;-75
2021/11/25 09:53:26;;;;;;;78.05;55.22;;;410.50;1254.40;;;;;;4992817;28;20034;-72
2021/11/25 09:55:53;;;;;;;96.40;58.75;;;;;;;;;;4992831;28;20026;-75
2021/11/25 09:58:26;;;;;;;76.72;53.13;;;435.30;1254.40;;;;;;4992957;28;20030;-73
2021/11/25 10:01:04;;;;;;;72.63;53.22;;;435.30;1228.80;;;;;;4996568;28;20033;-72
2021/11/25 10:03:31;;;;;;;105.45;72.68;;;;;;;;;;4996688;28;20034;-74
2021/11/25 10:05:59;;;;;;;106.60;68.32;;;410.50;1280.00;;;;;;4996681;28;20030;-71
2021/11/25 10:08:31;;;;;;;96.13;60.22;;;435.50;1254.40;;;;;;4996563;28;20034;-72
2021/11/25 10:11:09;;;;;;;74.55;49.78;;;435.60;1228.80;;;;;;4996563;28;20418;-72
2021/11/25 10:13:43;;;;;;;73.32;52.17;;;435.60;1228.80;;;;;;4996296;28;20064;-72
2021/11/25 10:16:12;;;;;;;77.22;53.40;;;;;;;;;;4996397;28;20022;-73
2021/11/25 10:18:39;;;;;;;79.07;53.42;;;410.40;1280.00;;;;;;4996126;28;20038;-72
2021/11/25 10:21:10;;;;;;;100.78;67.13;;;;;;;;;;4996411;28;20030;-74
2021/11/25 10:23:36;;;;;;;154.45;97.85;;;;;;;;;;4996111;28;20031;-70
2021/11/25 10:26:02;;;;;;;159.60;101.82;;;;;;;;;;4996531;28;20026;-74
2021/11/25 10:28:49;;;;;;;128.10;88.72;;;461.30;1203.20;;;;;;4996089;28;20054;-73
2021/11/25 10:31:18;;;;;;;128.77;84.22;;;;;;;;;;4996192;28;20022;-74
2021/11/25 10:41:51;;;;;;;120.17;88.97;;;436.10;1228.80;;;;;;4993740;28;20030;-69
2021/11/25 10:44:17;;;;;;;128.75;96.53;;;;;;;;;;4993890;28;20346;-73
2021/11/25 10:46:43;;;;;;;151.27;111.82;;;;;;;;;;5000534;28;20042;-75
2021/11/25 10:49:12;;;;;;;130.45;97.40;;;435.20;1305.60;;;;;;5013016;28;20477;-72
2021/11/25 10:51:40;;;;;;;127.47;94.97;;;435.30;1305.60;;;;;;5013013;28;20038;-73
2021/11/25 10:54:14;;;;;;;133.07;100.70;;;435.20;1305.60;;;;;;5013015;28;20045;-72
2021/11/25 10:56:48;;;;;;;150.98;104.25;;;410.40;1331.20;;;;;;5013017;28;20555;-72
2021/11/25 10:59:16;;;;;;;146.50;100.72;;;410.30;1331.20;;;;;;5012852;28;20092;-74
2021/11/25 11:01:44;;;;;;;120.88;88.68;;;;;;;;;;5012841;28;20034;-74
2021/11/25 11:04:11;;;;;;;136.88;99.85;;;;;;;;;;5013017;28;20037;-74
2021/11/25 11:06:38;;;;;;;155.18;113.90;;;;;;;;;;5012800;28;20449;-74
2021/11/25 11:09:05;;;;;;;140.20;90.60;;;;;;;;;;5012596;28;20022;-74
2021/11/25 11:11:34;;;;;;;140.77;92.57;;;;;;;;;;5012795;28;20091;-73
2021/11/25 11:17:15;;;;;;;105.45;73.80;;;;;;;;;;4995163;28;20034;-74
2021/11/25 11:19:27;;;;;;;160.13;98.85;;;;;;;;;;4997022;28;20148;-74
2021/11/25 11:21:53;;;;;;;109.05;75.40;;;410.10;1536.00;;;;;;4995456;28;20027;-72
2021/11/25 11:24:24;;;;;;;119.40;81.95;;;410.20;1382.40;;;;;;4994831;28;20096;-74
2021/11/25 11:26:50;;;;;;;;;;;;;;;;;;4995600;28;20169;-74
2021/11/25 11:29:18;;;;;;;102.35;64.80;;;;;;;;;;4995116;28;19905;-74
2021/11/25 11:31:45;;;;;;;154.57;91.07;;;;;;;;;;4994799;28;20401;-75
2021/11/25 11:34:12;;;;;;;105.07;64.60;;;;;;;;;;4995061;28;20497;-76
2021/11/25 11:36:39;;;;;;;150.27;91.25;;;;;;;;;;4995179;28;20416;-75
2021/11/25 11:39:05;;;;;;;153.65;92.20;;;435.70;1305.60;;;;;;4994852;28;20438;-72
2021/11/25 11:41:32;;;;;;;135.00;83.68;;;;;;;;;;4994847;28;20026;-76
2021/11/25 11:44:00;;;;;;;128.80;77.25;;;;;;;;;;4994907;28;20045;-75
2021/11/25 11:46:26;;;;;;;110.32;71.60;;;461.40;1254.40;;;;;;4994685;28;20378;-73
2021/11/25 11:48:52;;;;;;;83.95;58.50;;;461.50;1254.40;;;;;;4994524;28;20088;-73
2021/11/25 11:51:20;;;;;;;80.50;57.08;;;486.40;1228.80;;;;;;4994568;28;20089;-70
2021/11/25 11:53:51;;;;;;;82.32;58.55;;;;;;;;;;4994312;28;20120;-73
2021/11/25 11:56:18;;;;;;;100.10;72.57;;;;;;;;;;4994585;28;20042;-73
2021/11/25 11:58:57;;;;;;;102.55;72.70;;;691.20;793.60;;;;;;4994673;28;20034;-74
2021/11/25 12:01:25;;;;;;;89.70;62.38;;;;;;;;;;4994338;28;20046;-73
2021/11/25 12:03:56;;;;;;;79.55;60.30;;;;;;;;;;4994323;28;20019;-73
2021/11/25 12:06:42;;;;;;;89.80;58.05;;;;;;;;;;4994239;28;20470;-72
2021/11/25 12:09:20;;;;;;;88.38;54.70;;;;;;;;;;4994438;28;20387;-73
2021/11/25 12:11:48;;;;;;;84.93;57.67;;;;;;;;;;4994133;28;20034;-73
2021/11/25 12:14:27;;;;;;;84.75;58.05;;;;;;;;;;4994226;28;20034;-73
2021/11/25 12:17:12;;;;;;;77.10;49.50;;;;;;;;;;4994229;28;20026;-73
2021/11/25 12:19:38;;;;;;;91.10;57.53;;;;;;;;;;4994017;28;20142;-73
2021/11/25 12:22:09;;;;;;;99.25;65.30;;;640.10;896.00;;;;;;4993226;28;20037;-72
2021/11/25 12:24:35;;;;;;;;;;;;;;;;;;4994387;28;20392;-72
2021/11/25 12:27:15;;;;;;;91.18;59.20;;;;;;;;;;4994337;28;19906;-72
2021/11/25 12:29:43;;;;;;;99.72;71.50;;;;;;;;;;4993728;28;20033;-73
2021/11/25 12:32:43;;;;;;;87.85;63.58;;;512.00;1100.80;;;;;;4993764;28;20034;-72
2021/11/25 12:35:17;;;;;;;81.47;57.50;;;;;;;;;;4993723;28;20022;-73
2021/11/25 12:40:20;;;;;;;99.78;70.28;;;;;;;;;;4993702;28;20552;-72
2021/11/25 12:42:55;;;;;;;87.03;62.78;;;;;;;;;;4993519;28;20181;-73
2021/11/25 12:45:24;;;;;;;87.63;61.03;;;461.20;1280.00;;;;;;4993604;28;20045;-72
2021/11/25 12:48:09;;;;;;;132.45;96.60;;;;;;;;;;4989531;28;20053;-73